X  Schließen METAR Luftfahrt Wetterdaten     LGRX Patras Araxos Agamemnon Airport
Temperatur
28°C Temperatur
21°C Taupunkt
66% Feuchtigkeit



Wind
3 M/S
6 MPS
10 KM/S
5 KTS



60°
ONO
Aktuelle Wetterlage

Teilweise bewölkt Teilweise bewölkt
Luftdruck 1008.81 (hPa) - 29.79 (inHg)
Sichtweite 6 (Meile) - 9.7 (Km)
Flughafen
Flughafen Code LGRX

Position : Patras Araxos Agamemnon Airport
Entfernung: 108 (Km)

Metar:
LGRX 232250Z 06005KT 9999 FEW025 28/21 Q1009

Zeit: 24-07-2024 01:50 EEST